^^
Station Historical Data
 
Daily Summary for November 24, 2017 Units:  English    Metric   Both
« Previous Day
Next Day »
Daily Weekly Monthly Yearly Custom
  Current: High: Low: Average:
Temperature: 34.3 °F 34.9 °F 26.6 °F 29.5 °F
Dew Point: 32.7 °F 32.7 °F 25.9 °F 28.2 °F
Humidity: 94% 98% 86% 95%
Wind Speed: 0.0mph 0.9mph 0.0mph 0mph
Wind Gust: 0.0mph 1.0mph - -
WindCalm - - SSE
Pressure: 30.09 in 30.10 in 30.07 in -
Precipitation: 0.00 in      
Historical Graphs
 
 
Tabular Data for November 24, 2017
Time Temperature Dew Point Pressure Wind Wind Speed Wind Gust Humidity Rainfall Rate (Hourly)
00:00 34.9 °F 31.1 °F 30.08 in Calm     86% 0.00 in
00:06 34.9 °F 31.1 °F 30.08 in Calm     86% 0.00 in
00:11 34.5 °F 30.7 °F 30.08 in Calm     86% 0.00 in
00:21 34.2 °F 30.7 °F 30.08 in Calm     87% 0.00 in
00:26 34.2 °F 30.7 °F 30.08 in Calm     87% 0.00 in
00:31 34.0 °F 30.6 °F 30.08 in Calm     87% 0.00 in
00:36 33.6 °F 30.4 °F 30.08 in Calm     88% 0.00 in
00:41 33.4 °F 30.2 °F 30.08 in Calm     88% 0.00 in
01:01 33.3 °F 30.4 °F 30.08 in Calm     89% 0.00 in
01:06 32.9 °F 30.0 °F 30.08 in Calm     89% 0.00 in
01:11 32.5 °F 30.0 °F 30.08 in Calm     90% 0.00 in
01:16 32.4 °F 29.8 °F 30.08 in Calm     90% 0.00 in
01:21 32.0 °F 29.5 °F 30.08 in Calm     90% 0.00 in
01:26 31.8 °F 29.5 °F 30.08 in Calm     91% 0.00 in
01:31 31.6 °F 29.3 °F 30.08 in Calm     91% 0.00 in
01:41 31.5 °F 29.5 °F 30.08 in Calm     92% 0.00 in
01:46 31.5 °F 29.5 °F 30.08 in Calm     92% 0.00 in
02:06 30.6 °F 28.8 °F 30.08 in Calm     93% 0.00 in
02:21 30.6 °F 29.1 °F 30.08 in SW 0.9 mph 1.0 mph 94% 0.00 in
02:26 30.7 °F 29.5 °F 30.08 in Calm   1.0 mph 95% 0.00 in
02:31 30.7 °F 29.3 °F 30.08 in Calm   1.0 mph 94% 0.00 in
02:37 30.7 °F 29.3 °F 30.08 in Calm     94% 0.00 in
02:42 30.4 °F 28.9 °F 30.08 in Calm     94% 0.00 in
02:47 30.2 °F 28.8 °F 30.08 in Calm     94% 0.00 in
02:52 29.8 °F 28.4 °F 30.08 in Calm     94% 0.00 in
03:02 29.1 °F 27.7 °F 30.09 in Calm     94% 0.00 in
03:07 29.1 °F 27.9 °F 30.08 in Calm     95% 0.00 in
03:17 29.3 °F 28.0 °F 30.09 in Calm     95% 0.00 in
03:22 29.1 °F 27.9 °F 30.09 in Calm     95% 0.00 in
03:27 29.5 °F 28.4 °F 30.09 in Calm     96% 0.00 in
03:32 29.5 °F 28.4 °F 30.09 in Calm     96% 0.00 in
03:37 29.3 °F 28.2 °F 30.08 in Calm     96% 0.00 in
03:42 29.1 °F 28.0 °F 30.08 in Calm     96% 0.00 in
03:47 29.1 °F 28.0 °F 30.08 in Calm     96% 0.00 in
03:52 29.1 °F 28.0 °F 30.08 in Calm     96% 0.00 in
03:57 28.9 °F 27.9 °F 30.08 in Calm     96% 0.00 in
04:07 28.4 °F 27.1 °F 30.09 in Calm     95% 0.00 in
04:22 28.6 °F 27.5 °F 30.08 in Calm     96% 0.00 in
04:27 28.8 °F 28.0 °F 30.08 in Calm     97% 0.00 in
04:29 28.9 °F 28.2 °F 30.08 in Calm     97% 0.00 in
04:34 28.8 °F 27.7 °F 30.08 in Calm     96% 0.00 in
04:39 28.6 °F 27.9 °F 30.08 in Calm     97% 0.00 in
04:44 28.6 °F 27.9 °F 30.09 in Calm     97% 0.00 in
04:50 28.4 °F 27.3 °F 30.09 in Calm     96% 0.00 in
04:55 28.2 °F 27.1 °F 30.08 in Calm   1.0 mph 96% 0.00 in
05:00 28.6 °F 27.9 °F 30.09 in Calm   1.0 mph 97% 0.00 in
05:05 28.4 °F 27.7 °F 30.09 in Calm     97% 0.00 in
05:10 28.0 °F 27.0 °F 30.08 in Calm     96% 0.00 in
05:15 27.9 °F 26.8 °F 30.08 in Calm     96% 0.00 in
05:20 27.9 °F 26.8 °F 30.09 in Calm     96% 0.00 in
05:25 27.7 °F 26.6 °F 30.09 in Calm     96% 0.00 in
05:30 27.3 °F 26.4 °F 30.08 in Calm     96% 0.00 in
05:35 27.5 °F 26.6 °F 30.08 in Calm     96% 0.00 in
05:40 27.9 °F 27.1 °F 30.08 in Calm     97% 0.00 in
05:45 28.0 °F 27.3 °F 30.08 in Calm     97% 0.00 in
05:50 28.0 °F 27.3 °F 30.08 in Calm     97% 0.00 in
05:55 28.0 °F 27.3 °F 30.08 in Calm     97% 0.00 in
06:00 28.2 °F 27.5 °F 30.08 in Calm     97% 0.00 in
06:05 28.2 °F 27.5 °F 30.08 in Calm     97% 0.00 in
06:10 28.4 °F 27.7 °F 30.08 in Calm     97% 0.00 in
06:15 28.4 °F 27.7 °F 30.07 in Calm     97% 0.00 in
06:20 28.2 °F 27.5 °F 30.07 in Calm     97% 0.00 in
06:25 27.9 °F 27.1 °F 30.07 in Calm     97% 0.00 in
06:30 27.3 °F 26.6 °F 30.07 in Calm     97% 0.00 in
06:36 27.5 °F 26.8 °F 30.08 in Calm     97% 0.00 in
06:41 27.5 °F 26.8 °F 30.08 in Calm     97% 0.00 in
06:46 27.5 °F 26.8 °F 30.08 in Calm     97% 0.00 in
06:51 27.3 °F 26.6 °F 30.08 in Calm     97% 0.00 in
06:56 27.3 °F 26.6 °F 30.08 in Calm     97% 0.00 in
07:01 27.1 °F 26.4 °F 30.08 in Calm     97% 0.00 in
07:06 27.1 °F 26.4 °F 30.08 in Calm     97% 0.00 in
07:11 27.3 °F 26.6 °F 30.08 in Calm     97% 0.00 in
07:16 27.3 °F 26.6 °F 30.08 in Calm     97% 0.00 in
07:21 27.3 °F 26.6 °F 30.08 in Calm   1.0 mph 97% 0.00 in
07:26 27.7 °F 27.0 °F 30.08 in Calm     97% 0.00 in
07:31 27.5 °F 26.8 °F 30.09 in Calm     97% 0.00 in
07:36 27.1 °F 26.4 °F 30.09 in Calm     97% 0.00 in
07:41 27.1 °F 26.4 °F 30.09 in Calm     97% 0.00 in
07:46 27.0 °F 26.2 °F 30.09 in Calm     97% 0.00 in
07:51 26.8 °F 26.1 °F 30.09 in Calm     97% 0.00 in
07:56 26.8 °F 26.1 °F 30.09 in Calm     97% 0.00 in
08:01 26.6 °F 25.9 °F 30.09 in Calm     97% 0.00 in
08:06 26.6 °F 25.9 °F 30.10 in Calm     97% 0.00 in
08:11 26.8 °F 26.1 °F 30.09 in Calm     97% 0.00 in
08:16 26.8 °F 26.1 °F 30.10 in Calm     97% 0.00 in
08:22 26.8 °F 26.1 °F 30.10 in Calm     97% 0.00 in
08:27 27.1 °F 26.4 °F 30.09 in Calm     97% 0.00 in
08:32 27.7 °F 27.0 °F 30.09 in Calm     97% 0.00 in
08:37 28.6 °F 28.0 °F 30.09 in Calm     98% 0.00 in
08:42 29.7 °F 29.1 °F 30.09 in Calm     98% 0.00 in
08:47 30.0 °F 29.5 °F 30.09 in Calm     98% 0.00 in
08:52 30.6 °F 30.0 °F 30.09 in Calm     98% 0.00 in
08:57 31.3 °F 30.7 °F 30.09 in Calm     98% 0.00 in
09:02 32.0 °F 31.5 °F 30.09 in Calm     98% 0.00 in
09:07 32.5 °F 31.8 °F 30.09 in Calm     97% 0.00 in
09:12 33.1 °F 32.4 °F 30.09 in Calm   1.0 mph 97% 0.00 in
09:17 33.6 °F 32.5 °F 30.09 in ESE 0.9 mph 1.0 mph 96% 0.00 in
09:22 34.0 °F 32.7 °F 30.09 in Calm     95% 0.00 in
09:27 34.3 °F 32.7 °F 30.09 in Calm     94% 0.00 in
WheeWeather.com
Compliments of Weather Underground - 1.5 mb